sensor_id;sensor_type;location;lat;lon;timestamp;P1;durP1;ratioP1;P2;durP2;ratioP2
75548;SDS011;64133;56.002;37.208;2023-04-24T00:03:12;12.18;;;5.37;;
75548;SDS011;64133;56.002;37.208;2023-04-24T00:08:16;10.60;;;5.17;;
75548;SDS011;64133;56.002;37.208;2023-04-24T00:13:21;13.18;;;5.15;;
75548;SDS011;64133;56.002;37.208;2023-04-24T00:18:25;13.15;;;5.42;;
75548;SDS011;64133;56.002;37.208;2023-04-24T00:23:30;11.85;;;5.85;;
75548;SDS011;64133;56.002;37.208;2023-04-24T00:28:35;13.30;;;5.55;;
75548;SDS011;64133;56.002;37.208;2023-04-24T00:33:39;8.70;;;5.22;;
75548;SDS011;64133;56.002;37.208;2023-04-24T00:38:44;9.13;;;5.55;;
75548;SDS011;64133;56.002;37.208;2023-04-24T00:43:49;14.07;;;6.25;;
75548;SDS011;64133;56.002;37.208;2023-04-24T00:48:53;10.90;;;6.15;;
75548;SDS011;64133;56.002;37.208;2023-04-24T00:53:58;10.35;;;5.92;;
75548;SDS011;64133;56.002;37.208;2023-04-24T00:59:03;12.95;;;6.65;;
75548;SDS011;64133;56.002;37.208;2023-04-24T01:04:16;9.63;;;5.70;;
75548;SDS011;64133;56.002;37.208;2023-04-24T01:09:21;10.68;;;5.30;;
75548;SDS011;64133;56.002;37.208;2023-04-24T01:14:26;13.65;;;6.10;;
75548;SDS011;64133;56.002;37.208;2023-04-24T01:19:31;10.03;;;5.62;;
75548;SDS011;64133;56.002;37.208;2023-04-24T01:24:35;8.55;;;5.00;;
75548;SDS011;64133;56.002;37.208;2023-04-24T01:29:40;6.05;;;4.53;;
75548;SDS011;64133;56.002;37.208;2023-04-24T01:34:45;11.75;;;5.70;;
75548;SDS011;64133;56.002;37.208;2023-04-24T01:39:49;9.63;;;5.30;;
75548;SDS011;64133;56.002;37.208;2023-04-24T01:44:57;12.70;;;6.05;;
75548;SDS011;64133;56.002;37.208;2023-04-24T01:50:02;14.70;;;5.55;;
75548;SDS011;64133;56.002;37.208;2023-04-24T01:55:08;12.70;;;5.97;;
75548;SDS011;64133;56.002;37.208;2023-04-24T02:00:14;10.38;;;6.33;;
75548;SDS011;64133;56.002;37.208;2023-04-24T02:05:18;13.13;;;6.50;;
75548;SDS011;64133;56.002;37.208;2023-04-24T02:10:23;13.85;;;6.83;;
75548;SDS011;64133;56.002;37.208;2023-04-24T02:15:28;12.63;;;6.83;;
75548;SDS011;64133;56.002;37.208;2023-04-24T02:20:32;15.70;;;7.17;;
75548;SDS011;64133;56.002;37.208;2023-04-24T02:25:37;19.10;;;7.78;;
75548;SDS011;64133;56.002;37.208;2023-04-24T02:30:42;15.10;;;6.35;;
75548;SDS011;64133;56.002;37.208;2023-04-24T02:35:46;24.45;;;7.12;;
75548;SDS011;64133;56.002;37.208;2023-04-24T02:40:51;15.13;;;6.47;;
75548;SDS011;64133;56.002;37.208;2023-04-24T02:45:56;16.12;;;7.55;;
75548;SDS011;64133;56.002;37.208;2023-04-24T02:51:00;21.90;;;8.40;;
75548;SDS011;64133;56.002;37.208;2023-04-24T02:56:05;17.10;;;7.72;;
75548;SDS011;64133;56.002;37.208;2023-04-24T03:01:10;11.80;;;6.95;;
75548;SDS011;64133;56.002;37.208;2023-04-24T03:06:14;11.00;;;6.47;;
75548;SDS011;64133;56.002;37.208;2023-04-24T03:11:19;15.13;;;7.90;;
75548;SDS011;64133;56.002;37.208;2023-04-24T03:16:24;13.18;;;7.67;;
75548;SDS011;64133;56.002;37.208;2023-04-24T03:21:28;23.22;;;7.55;;
75548;SDS011;64133;56.002;37.208;2023-04-24T03:26:33;21.97;;;8.08;;
75548;SDS011;64133;56.002;37.208;2023-04-24T03:31:38;11.88;;;8.58;;
75548;SDS011;64133;56.002;37.208;2023-04-24T03:36:42;13.00;;;7.95;;
75548;SDS011;64133;56.002;37.208;2023-04-24T03:41:47;19.60;;;9.15;;
75548;SDS011;64133;56.002;37.208;2023-04-24T03:46:51;13.62;;;9.45;;
75548;SDS011;64133;56.002;37.208;2023-04-24T03:51:56;18.52;;;10.35;;
75548;SDS011;64133;56.002;37.208;2023-04-24T03:57:01;14.18;;;9.60;;
75548;SDS011;64133;56.002;37.208;2023-04-24T04:02:06;18.02;;;9.85;;
75548;SDS011;64133;56.002;37.208;2023-04-24T04:07:10;16.67;;;11.22;;
75548;SDS011;64133;56.002;37.208;2023-04-24T04:12:15;15.75;;;10.32;;
75548;SDS011;64133;56.002;37.208;2023-04-24T04:17:19;14.80;;;10.13;;
75548;SDS011;64133;56.002;37.208;2023-04-24T04:22:24;16.42;;;10.00;;
75548;SDS011;64133;56.002;37.208;2023-04-24T04:27:29;15.43;;;11.08;;
75548;SDS011;64133;56.002;37.208;2023-04-24T04:32:34;15.08;;;10.13;;
75548;SDS011;64133;56.002;37.208;2023-04-24T04:37:38;14.87;;;10.00;;
75548;SDS011;64133;56.002;37.208;2023-04-24T04:42:43;13.53;;;10.45;;
75548;SDS011;64133;56.002;37.208;2023-04-24T04:47:48;13.88;;;9.98;;
75548;SDS011;64133;56.002;37.208;2023-04-24T04:52:52;14.23;;;9.23;;
75548;SDS011;64133;56.002;37.208;2023-04-24T04:57:57;13.98;;;10.05;;
75548;SDS011;64133;56.002;37.208;2023-04-24T05:03:02;14.28;;;9.90;;
75548;SDS011;64133;56.002;37.208;2023-04-24T05:08:07;12.75;;;9.20;;
75548;SDS011;64133;56.002;37.208;2023-04-24T05:13:11;15.10;;;9.63;;
75548;SDS011;64133;56.002;37.208;2023-04-24T05:18:16;16.60;;;9.33;;
75548;SDS011;64133;56.002;37.208;2023-04-24T05:23:20;15.45;;;8.70;;
75548;SDS011;64133;56.002;37.208;2023-04-24T05:28:25;15.13;;;9.33;;
75548;SDS011;64133;56.002;37.208;2023-04-24T05:33:31;15.38;;;8.95;;
75548;SDS011;64133;56.002;37.208;2023-04-24T05:38:35;12.90;;;8.75;;
75548;SDS011;64133;56.002;37.208;2023-04-24T05:43:40;10.20;;;7.95;;
75548;SDS011;64133;56.002;37.208;2023-04-24T05:48:45;13.05;;;8.78;;
75548;SDS011;64133;56.002;37.208;2023-04-24T05:53:50;19.32;;;8.70;;
75548;SDS011;64133;56.002;37.208;2023-04-24T05:58:54;16.45;;;7.47;;
75548;SDS011;64133;56.002;37.208;2023-04-24T06:04:00;15.25;;;8.40;;
75548;SDS011;64133;56.002;37.208;2023-04-24T06:09:05;12.85;;;7.05;;
75548;SDS011;64133;56.002;37.208;2023-04-24T06:14:14;11.22;;;8.78;;
75548;SDS011;64133;56.002;37.208;2023-04-24T06:19:26;12.30;;;8.33;;
75548;SDS011;64133;56.002;37.208;2023-04-24T06:24:33;9.53;;;7.60;;
75548;SDS011;64133;56.002;37.208;2023-04-24T06:29:38;24.67;;;8.25;;
75548;SDS011;64133;56.002;37.208;2023-04-24T06:34:44;16.12;;;7.80;;
75548;SDS011;64133;56.002;37.208;2023-04-24T06:39:49;13.60;;;7.37;;
75548;SDS011;64133;56.002;37.208;2023-04-24T06:44:54;20.20;;;7.53;;
75548;SDS011;64133;56.002;37.208;2023-04-24T06:49:58;14.35;;;6.75;;
75548;SDS011;64133;56.002;37.208;2023-04-24T06:55:04;18.30;;;8.18;;
75548;SDS011;64133;56.002;37.208;2023-04-24T07:00:11;11.12;;;6.62;;
75548;SDS011;64133;56.002;37.208;2023-04-24T07:05:16;11.85;;;7.35;;
75548;SDS011;64133;56.002;37.208;2023-04-24T07:10:22;15.05;;;7.45;;
75548;SDS011;64133;56.002;37.208;2023-04-24T07:15:27;11.15;;;6.97;;
75548;SDS011;64133;56.002;37.208;2023-04-24T07:20:32;9.45;;;6.92;;
75548;SDS011;64133;56.002;37.208;2023-04-24T07:25:36;12.65;;;6.80;;
75548;SDS011;64133;56.002;37.208;2023-04-24T07:30:41;15.10;;;6.67;;
75548;SDS011;64133;56.002;37.208;2023-04-24T07:35:46;12.20;;;6.87;;
75548;SDS011;64133;56.002;37.208;2023-04-24T07:40:50;13.90;;;6.47;;
75548;SDS011;64133;56.002;37.208;2023-04-24T07:45:55;9.50;;;5.55;;
75548;SDS011;64133;56.002;37.208;2023-04-24T07:51:00;15.95;;;6.08;;
75548;SDS011;64133;56.002;37.208;2023-04-24T07:56:05;8.33;;;6.03;;
75548;SDS011;64133;56.002;37.208;2023-04-24T08:01:09;9.18;;;5.28;;
75548;SDS011;64133;56.002;37.208;2023-04-24T08:06:14;10.70;;;6.85;;
75548;SDS011;64133;56.002;37.208;2023-04-24T08:11:19;10.65;;;5.42;;
75548;SDS011;64133;56.002;37.208;2023-04-24T08:16:23;6.75;;;4.58;;
75548;SDS011;64133;56.002;37.208;2023-04-24T08:21:28;5.72;;;4.78;;
75548;SDS011;64133;56.002;37.208;2023-04-24T08:26:33;8.30;;;4.62;;
75548;SDS011;64133;56.002;37.208;2023-04-24T08:31:37;18.57;;;4.97;;
75548;SDS011;64133;56.002;37.208;2023-04-24T08:36:42;7.70;;;3.95;;
75548;SDS011;64133;56.002;37.208;2023-04-24T08:41:47;11.12;;;4.58;;
75548;SDS011;64133;56.002;37.208;2023-04-24T08:46:51;8.33;;;4.45;;
75548;SDS011;64133;56.002;37.208;2023-04-24T08:51:56;7.87;;;4.37;;
75548;SDS011;64133;56.002;37.208;2023-04-24T08:57:02;8.38;;;4.53;;
75548;SDS011;64133;56.002;37.208;2023-04-24T09:02:06;8.53;;;4.25;;
75548;SDS011;64133;56.002;37.208;2023-04-24T09:07:11;6.60;;;4.12;;
75548;SDS011;64133;56.002;37.208;2023-04-24T09:12:16;5.15;;;3.75;;
75548;SDS011;64133;56.002;37.208;2023-04-24T09:17:20;6.22;;;4.42;;
75548;SDS011;64133;56.002;37.208;2023-04-24T09:22:25;7.17;;;3.92;;
75548;SDS011;64133;56.002;37.208;2023-04-24T09:27:30;6.97;;;4.10;;
75548;SDS011;64133;56.002;37.208;2023-04-24T09:32:35;7.10;;;3.95;;
75548;SDS011;64133;56.002;37.208;2023-04-24T09:37:41;6.50;;;4.10;;
75548;SDS011;64133;56.002;37.208;2023-04-24T09:42:51;7.60;;;3.83;;
75548;SDS011;64133;56.002;37.208;2023-04-24T09:47:55;4.42;;;3.50;;
75548;SDS011;64133;56.002;37.208;2023-04-24T09:53:01;5.67;;;3.15;;
75548;SDS011;64133;56.002;37.208;2023-04-24T09:58:05;4.85;;;3.45;;
75548;SDS011;64133;56.002;37.208;2023-04-24T10:03:10;4.85;;;3.02;;
75548;SDS011;64133;56.002;37.208;2023-04-24T10:08:14;9.23;;;3.90;;
75548;SDS011;64133;56.002;37.208;2023-04-24T10:13:19;5.97;;;3.52;;
75548;SDS011;64133;56.002;37.208;2023-04-24T10:18:24;8.28;;;3.25;;
75548;SDS011;64133;56.002;37.208;2023-04-24T10:23:38;8.63;;;3.55;;
75548;SDS011;64133;56.002;37.208;2023-04-24T10:28:42;4.90;;;3.25;;
75548;SDS011;64133;56.002;37.208;2023-04-24T10:33:48;6.70;;;3.83;;
75548;SDS011;64133;56.002;37.208;2023-04-24T10:38:54;7.83;;;3.90;;
75548;SDS011;64133;56.002;37.208;2023-04-24T10:44:07;5.33;;;3.65;;
75548;SDS011;64133;56.002;37.208;2023-04-24T10:49:12;6.28;;;3.62;;
75548;SDS011;64133;56.002;37.208;2023-04-24T10:54:24;4.78;;;3.10;;
75548;SDS011;64133;56.002;37.208;2023-04-24T10:59:34;9.68;;;3.65;;
75548;SDS011;64133;56.002;37.208;2023-04-24T11:04:33;6.70;;;3.65;;
75548;SDS011;64133;56.002;37.208;2023-04-24T11:09:42;5.95;;;3.87;;
75548;SDS011;64133;56.002;37.208;2023-04-24T11:20:22;7.03;;;4.37;;
75548;SDS011;64133;56.002;37.208;2023-04-24T11:25:28;7.37;;;4.53;;
75548;SDS011;64133;56.002;37.208;2023-04-24T11:30:31;4.45;;;3.35;;
75548;SDS011;64133;56.002;37.208;2023-04-24T11:35:38;8.23;;;3.90;;
75548;SDS011;64133;56.002;37.208;2023-04-24T11:40:50;9.30;;;4.12;;
75548;SDS011;64133;56.002;37.208;2023-04-24T11:45:59;7.05;;;4.08;;
75548;SDS011;64133;56.002;37.208;2023-04-24T11:51:03;5.42;;;4.22;;
75548;SDS011;64133;56.002;37.208;2023-04-24T11:56:09;5.50;;;3.70;;
75548;SDS011;64133;56.002;37.208;2023-04-24T12:01:14;10.00;;;4.30;;
75548;SDS011;64133;56.002;37.208;2023-04-24T12:06:18;7.10;;;4.90;;
75548;SDS011;64133;56.002;37.208;2023-04-24T12:11:23;6.17;;;4.03;;
75548;SDS011;64133;56.002;37.208;2023-04-24T12:16:28;8.05;;;4.08;;
75548;SDS011;64133;56.002;37.208;2023-04-24T12:21:32;7.20;;;3.85;;
75548;SDS011;64133;56.002;37.208;2023-04-24T12:26:37;6.10;;;3.95;;
75548;SDS011;64133;56.002;37.208;2023-04-24T12:31:42;6.62;;;3.87;;
75548;SDS011;64133;56.002;37.208;2023-04-24T12:36:46;11.20;;;4.53;;
75548;SDS011;64133;56.002;37.208;2023-04-24T12:41:54;3.65;;;2.90;;
75548;SDS011;64133;56.002;37.208;2023-04-24T12:47:00;6.80;;;4.40;;
75548;SDS011;64133;56.002;37.208;2023-04-24T12:52:04;5.20;;;3.45;;
75548;SDS011;64133;56.002;37.208;2023-04-24T12:57:09;5.42;;;3.60;;
75548;SDS011;64133;56.002;37.208;2023-04-24T13:02:14;7.60;;;3.95;;
75548;SDS011;64133;56.002;37.208;2023-04-24T13:07:19;8.30;;;4.37;;
75548;SDS011;64133;56.002;37.208;2023-04-24T13:12:24;5.67;;;3.92;;
75548;SDS011;64133;56.002;37.208;2023-04-24T13:17:28;5.95;;;3.60;;
75548;SDS011;64133;56.002;37.208;2023-04-24T13:22:33;5.58;;;3.50;;
75548;SDS011;64133;56.002;37.208;2023-04-24T13:27:39;4.65;;;3.67;;
75548;SDS011;64133;56.002;37.208;2023-04-24T13:32:43;7.65;;;4.30;;
75548;SDS011;64133;56.002;37.208;2023-04-24T13:37:48;6.12;;;3.55;;
75548;SDS011;64133;56.002;37.208;2023-04-24T13:42:52;8.03;;;3.92;;
75548;SDS011;64133;56.002;37.208;2023-04-24T13:47:57;5.85;;;3.12;;
75548;SDS011;64133;56.002;37.208;2023-04-24T13:53:02;5.37;;;3.35;;
75548;SDS011;64133;56.002;37.208;2023-04-24T13:58:07;3.80;;;3.05;;
75548;SDS011;64133;56.002;37.208;2023-04-24T14:03:12;6.22;;;3.77;;
75548;SDS011;64133;56.002;37.208;2023-04-24T14:08:16;5.83;;;3.27;;
75548;SDS011;64133;56.002;37.208;2023-04-24T14:13:21;6.37;;;3.22;;
75548;SDS011;64133;56.002;37.208;2023-04-24T14:18:26;3.75;;;2.75;;
75548;SDS011;64133;56.002;37.208;2023-04-24T14:23:30;4.62;;;3.05;;
75548;SDS011;64133;56.002;37.208;2023-04-24T14:28:35;4.50;;;2.87;;
75548;SDS011;64133;56.002;37.208;2023-04-24T14:33:40;3.98;;;2.87;;
75548;SDS011;64133;56.002;37.208;2023-04-24T14:38:44;6.60;;;2.92;;
75548;SDS011;64133;56.002;37.208;2023-04-24T14:43:49;4.97;;;3.20;;
75548;SDS011;64133;56.002;37.208;2023-04-24T14:48:54;5.30;;;2.72;;
75548;SDS011;64133;56.002;37.208;2023-04-24T14:53:59;5.30;;;2.75;;
75548;SDS011;64133;56.002;37.208;2023-04-24T14:59:03;6.75;;;3.20;;
75548;SDS011;64133;56.002;37.208;2023-04-24T15:04:08;5.37;;;3.37;;
75548;SDS011;64133;56.002;37.208;2023-04-24T15:09:13;5.35;;;3.62;;
75548;SDS011;64133;56.002;37.208;2023-04-24T15:14:18;5.72;;;3.60;;
75548;SDS011;64133;56.002;37.208;2023-04-24T15:19:22;4.87;;;3.22;;
75548;SDS011;64133;56.002;37.208;2023-04-24T15:24:27;4.85;;;3.67;;
75548;SDS011;64133;56.002;37.208;2023-04-24T15:29:31;5.83;;;3.85;;
75548;SDS011;64133;56.002;37.208;2023-04-24T15:34:36;6.03;;;4.12;;
75548;SDS011;64133;56.002;37.208;2023-04-24T15:39:41;7.97;;;4.00;;
75548;SDS011;64133;56.002;37.208;2023-04-24T15:44:45;4.90;;;3.98;;
75548;SDS011;64133;56.002;37.208;2023-04-24T15:49:52;7.20;;;3.90;;
75548;SDS011;64133;56.002;37.208;2023-04-24T15:54:59;6.15;;;4.50;;
75548;SDS011;64133;56.002;37.208;2023-04-24T16:00:06;8.18;;;4.17;;
75548;SDS011;64133;56.002;37.208;2023-04-24T16:05:11;8.03;;;4.05;;
75548;SDS011;64133;56.002;37.208;2023-04-24T16:10:16;9.43;;;4.47;;
75548;SDS011;64133;56.002;37.208;2023-04-24T16:15:21;9.95;;;4.53;;
75548;SDS011;64133;56.002;37.208;2023-04-24T16:20:26;8.98;;;4.55;;
75548;SDS011;64133;56.002;37.208;2023-04-24T16:25:31;7.45;;;4.28;;
75548;SDS011;64133;56.002;37.208;2023-04-24T16:30:35;6.58;;;4.62;;
75548;SDS011;64133;56.002;37.208;2023-04-24T16:35:40;6.60;;;4.08;;
75548;SDS011;64133;56.002;37.208;2023-04-24T16:40:45;7.25;;;3.95;;
75548;SDS011;64133;56.002;37.208;2023-04-24T16:45:50;6.75;;;4.65;;
75548;SDS011;64133;56.002;37.208;2023-04-24T16:50:55;8.33;;;4.65;;
75548;SDS011;64133;56.002;37.208;2023-04-24T16:56:00;7.28;;;4.80;;
75548;SDS011;64133;56.002;37.208;2023-04-24T17:01:05;9.95;;;4.33;;
75548;SDS011;64133;56.002;37.208;2023-04-24T17:06:09;13.05;;;4.87;;
75548;SDS011;64133;56.002;37.208;2023-04-24T17:11:14;11.35;;;5.20;;
75548;SDS011;64133;56.002;37.208;2023-04-24T17:16:19;15.48;;;6.28;;
75548;SDS011;64133;56.002;37.208;2023-04-24T17:21:24;11.25;;;5.03;;
75548;SDS011;64133;56.002;37.208;2023-04-24T17:26:28;7.78;;;4.87;;
75548;SDS011;64133;56.002;37.208;2023-04-24T17:31:34;9.03;;;5.53;;
75548;SDS011;64133;56.002;37.208;2023-04-24T17:36:38;11.22;;;5.03;;
75548;SDS011;64133;56.002;37.208;2023-04-24T17:41:46;9.75;;;4.50;;
75548;SDS011;64133;56.002;37.208;2023-04-24T17:46:51;9.75;;;4.37;;
75548;SDS011;64133;56.002;37.208;2023-04-24T17:51:55;7.25;;;3.90;;
75548;SDS011;64133;56.002;37.208;2023-04-24T17:57:02;8.08;;;3.90;;
75548;SDS011;64133;56.002;37.208;2023-04-24T18:02:16;8.95;;;4.75;;
75548;SDS011;64133;56.002;37.208;2023-04-24T18:07:21;8.35;;;4.42;;
75548;SDS011;64133;56.002;37.208;2023-04-24T18:12:26;7.65;;;4.45;;
75548;SDS011;64133;56.002;37.208;2023-04-24T18:17:30;9.38;;;4.50;;
75548;SDS011;64133;56.002;37.208;2023-04-24T18:22:35;12.58;;;4.80;;
75548;SDS011;64133;56.002;37.208;2023-04-24T18:27:40;8.63;;;4.17;;
75548;SDS011;64133;56.002;37.208;2023-04-24T18:32:44;9.95;;;5.25;;
75548;SDS011;64133;56.002;37.208;2023-04-24T18:37:49;10.40;;;5.15;;
75548;SDS011;64133;56.002;37.208;2023-04-24T18:42:54;11.10;;;5.03;;
75548;SDS011;64133;56.002;37.208;2023-04-24T18:47:59;7.62;;;4.83;;
75548;SDS011;64133;56.002;37.208;2023-04-24T18:53:03;10.53;;;4.95;;
75548;SDS011;64133;56.002;37.208;2023-04-24T18:58:08;11.03;;;5.30;;
75548;SDS011;64133;56.002;37.208;2023-04-24T19:03:13;16.67;;;4.58;;
75548;SDS011;64133;56.002;37.208;2023-04-24T19:08:17;8.05;;;4.67;;
75548;SDS011;64133;56.002;37.208;2023-04-24T19:13:22;10.00;;;4.45;;
75548;SDS011;64133;56.002;37.208;2023-04-24T19:18:27;8.73;;;4.03;;
75548;SDS011;64133;56.002;37.208;2023-04-24T19:23:31;8.45;;;4.20;;
75548;SDS011;64133;56.002;37.208;2023-04-24T19:28:36;7.95;;;3.75;;
75548;SDS011;64133;56.002;37.208;2023-04-24T19:33:41;11.57;;;4.75;;
75548;SDS011;64133;56.002;37.208;2023-04-24T19:38:46;8.18;;;3.92;;
75548;SDS011;64133;56.002;37.208;2023-04-24T19:43:51;12.70;;;4.00;;
75548;SDS011;64133;56.002;37.208;2023-04-24T19:48:55;8.78;;;4.42;;
75548;SDS011;64133;56.002;37.208;2023-04-24T19:54:00;7.20;;;3.85;;
75548;SDS011;64133;56.002;37.208;2023-04-24T19:59:05;7.62;;;4.10;;
75548;SDS011;64133;56.002;37.208;2023-04-24T20:04:10;7.17;;;3.92;;
75548;SDS011;64133;56.002;37.208;2023-04-24T20:09:15;10.78;;;4.08;;
75548;SDS011;64133;56.002;37.208;2023-04-24T20:14:20;9.88;;;3.60;;
75548;SDS011;64133;56.002;37.208;2023-04-24T20:19:25;7.97;;;3.20;;
75548;SDS011;64133;56.002;37.208;2023-04-24T20:24:30;8.08;;;4.10;;
75548;SDS011;64133;56.002;37.208;2023-04-24T20:29:35;6.75;;;3.85;;
75548;SDS011;64133;56.002;37.208;2023-04-24T20:34:40;9.85;;;4.12;;
75548;SDS011;64133;56.002;37.208;2023-04-24T20:39:44;6.70;;;3.92;;
75548;SDS011;64133;56.002;37.208;2023-04-24T20:44:49;3.42;;;2.15;;
75548;SDS011;64133;56.002;37.208;2023-04-24T20:49:54;8.08;;;3.40;;
75548;SDS011;64133;56.002;37.208;2023-04-24T20:54:58;9.70;;;4.53;;
75548;SDS011;64133;56.002;37.208;2023-04-24T21:00:04;9.55;;;4.65;;
75548;SDS011;64133;56.002;37.208;2023-04-24T21:05:10;12.80;;;4.95;;
75548;SDS011;64133;56.002;37.208;2023-04-24T21:10:14;7.72;;;4.05;;
75548;SDS011;64133;56.002;37.208;2023-04-24T21:15:19;6.92;;;4.17;;
75548;SDS011;64133;56.002;37.208;2023-04-24T21:20:24;8.65;;;4.17;;
75548;SDS011;64133;56.002;37.208;2023-04-24T21:25:28;8.93;;;4.17;;
75548;SDS011;64133;56.002;37.208;2023-04-24T21:30:33;8.48;;;4.00;;
75548;SDS011;64133;56.002;37.208;2023-04-24T21:35:38;6.92;;;4.17;;
75548;SDS011;64133;56.002;37.208;2023-04-24T21:40:42;8.50;;;4.00;;
75548;SDS011;64133;56.002;37.208;2023-04-24T21:45:47;7.92;;;3.95;;
75548;SDS011;64133;56.002;37.208;2023-04-24T21:50:51;7.90;;;3.83;;
75548;SDS011;64133;56.002;37.208;2023-04-24T21:55:56;6.62;;;4.33;;
75548;SDS011;64133;56.002;37.208;2023-04-24T22:01:01;8.40;;;4.33;;
75548;SDS011;64133;56.002;37.208;2023-04-24T22:06:06;7.10;;;3.67;;
75548;SDS011;64133;56.002;37.208;2023-04-24T22:11:10;6.67;;;3.92;;
75548;SDS011;64133;56.002;37.208;2023-04-24T22:16:15;9.95;;;4.00;;
75548;SDS011;64133;56.002;37.208;2023-04-24T22:21:20;6.97;;;4.17;;
75548;SDS011;64133;56.002;37.208;2023-04-24T22:26:25;7.10;;;3.65;;
75548;SDS011;64133;56.002;37.208;2023-04-24T22:31:29;7.80;;;4.22;;
75548;SDS011;64133;56.002;37.208;2023-04-24T22:36:34;12.47;;;4.10;;
75548;SDS011;64133;56.002;37.208;2023-04-24T22:41:38;9.83;;;3.87;;
75548;SDS011;64133;56.002;37.208;2023-04-24T22:46:43;6.50;;;3.87;;
75548;SDS011;64133;56.002;37.208;2023-04-24T22:51:48;5.62;;;3.22;;
75548;SDS011;64133;56.002;37.208;2023-04-24T22:56:52;8.68;;;3.70;;
75548;SDS011;64133;56.002;37.208;2023-04-24T23:01:57;6.60;;;4.20;;
75548;SDS011;64133;56.002;37.208;2023-04-24T23:07:02;7.42;;;3.40;;
75548;SDS011;64133;56.002;37.208;2023-04-24T23:12:06;8.05;;;3.77;;
75548;SDS011;64133;56.002;37.208;2023-04-24T23:17:11;8.38;;;4.17;;
75548;SDS011;64133;56.002;37.208;2023-04-24T23:22:15;10.20;;;3.33;;
75548;SDS011;64133;56.002;37.208;2023-04-24T23:27:20;11.28;;;4.97;;
75548;SDS011;64133;56.002;37.208;2023-04-24T23:32:25;8.38;;;3.77;;
75548;SDS011;64133;56.002;37.208;2023-04-24T23:37:29;8.63;;;3.75;;
75548;SDS011;64133;56.002;37.208;2023-04-24T23:42:34;5.42;;;3.33;;
75548;SDS011;64133;56.002;37.208;2023-04-24T23:47:39;9.73;;;4.15;;
75548;SDS011;64133;56.002;37.208;2023-04-24T23:52:43;8.23;;;3.62;;
75548;SDS011;64133;56.002;37.208;2023-04-24T23:57:48;8.35;;;4.47;;
